createdAt,value
2022-10-30T00:01:20.113Z,5.60
2022-10-30T00:04:21.830Z,6.78
2022-10-30T00:07:23.435Z,10.18
2022-10-30T00:10:25.550Z,5.93
2022-10-30T00:13:27.236Z,8.13
2022-10-30T00:16:28.948Z,8.50
2022-10-30T00:19:30.531Z,8.32
2022-10-30T00:22:32.340Z,8.32
2022-10-30T00:25:34.930Z,7.53
2022-10-30T00:28:36.607Z,6.85
2022-10-30T00:31:38.266Z,9.80
2022-10-30T00:34:39.939Z,5.55
2022-10-30T00:37:42.874Z,7.47
2022-10-30T00:40:44.555Z,7.35
2022-10-30T00:43:46.597Z,5.57
2022-10-30T00:46:48.579Z,4.95
2022-10-30T00:49:56.425Z,6.78
2022-10-30T00:53:01.991Z,6.53
2022-10-30T00:56:06.168Z,5.87
2022-10-30T00:59:12.334Z,6.07
2022-10-30T01:02:14.160Z,6.53
2022-10-30T01:05:17.456Z,7.93
2022-10-30T01:08:19.403Z,6.25
2022-10-30T01:11:21.129Z,6.50
2022-10-30T01:14:22.800Z,5.43
2022-10-30T01:17:31.378Z,8.25
2022-10-30T01:20:36.614Z,7.15
2022-10-30T01:23:52.689Z,5.78
2022-10-30T01:27:07.792Z,5.03
2022-10-30T01:30:18.601Z,6.32
2022-10-30T01:33:23.080Z,7.97
2022-10-30T01:36:37.592Z,7.43
2022-10-30T01:39:40.774Z,7.40
2022-10-30T01:42:45.348Z,7.28
2022-10-30T01:48:56.453Z,5.18
2022-10-30T01:52:18.835Z,6.07
2022-10-30T01:55:20.460Z,4.85
2022-10-30T01:58:28.598Z,6.65
2022-10-30T02:01:33.391Z,6.18
2022-10-30T02:04:35.344Z,5.78
2022-10-30T02:07:37.290Z,7.22
2022-10-30T02:10:42.576Z,6.50
2022-10-30T02:13:45.243Z,5.30
2022-10-30T02:16:48.994Z,5.43
2022-10-30T02:19:53.153Z,5.50
2022-10-30T02:22:58.967Z,3.75
2022-10-30T02:26:05.740Z,5.10
2022-10-30T02:29:07.557Z,7.13
2022-10-30T02:32:09.249Z,4.55
2022-10-30T02:35:11.015Z,7.45
2022-10-30T02:38:12.817Z,4.45
2022-10-30T02:41:14.790Z,6.28
2022-10-30T02:44:17.073Z,5.20
2022-10-30T02:47:18.842Z,5.72
2022-10-30T02:50:20.772Z,4.60
2022-10-30T02:53:22.687Z,5.47
2022-10-30T02:56:24.365Z,4.53
2022-10-30T02:59:25.979Z,7.38
2022-10-30T03:02:27.710Z,5.68
2022-10-30T03:05:29.507Z,5.68
2022-10-30T03:08:32.870Z,4.78
2022-10-30T03:11:35.439Z,4.97
2022-10-30T03:14:37.905Z,6.40
2022-10-30T03:23:48.514Z,5.28
2022-10-30T03:26:50.587Z,4.93
2022-10-30T03:29:52.689Z,5.10
2022-10-30T03:32:54.410Z,5.00
2022-10-30T03:35:56.087Z,5.47
2022-10-30T03:38:59.120Z,7.47
2022-10-30T03:42:01.438Z,1.20
2022-10-30T03:45:03.317Z,4.60
2022-10-30T03:48:06.348Z,5.63
2022-10-30T03:51:08.708Z,4.10
2022-10-30T03:54:10.520Z,3.28
2022-10-30T03:57:13.523Z,6.15
2022-10-30T04:00:26.441Z,5.57
2022-10-30T04:03:31.860Z,5.38
2022-10-30T04:06:33.565Z,4.55
2022-10-30T04:09:36.300Z,2.85
2022-10-30T04:12:38.378Z,4.30
2022-10-30T04:15:40.276Z,4.68
2022-10-30T04:18:42.034Z,4.53
2022-10-30T04:21:43.768Z,3.35
2022-10-30T04:24:49.158Z,4.60
2022-10-30T04:27:53.062Z,3.70
2022-10-30T04:30:54.864Z,4.60
2022-10-30T04:33:56.528Z,7.82
2022-10-30T04:36:58.151Z,3.50
2022-10-30T04:39:59.832Z,4.10
2022-10-30T04:43:07.386Z,3.42
2022-10-30T04:46:09.006Z,3.38
2022-10-30T04:49:10.717Z,4.75
2022-10-30T04:52:12.344Z,4.07
2022-10-30T04:55:14.187Z,5.70
2022-10-30T04:58:18.005Z,4.22
2022-10-30T05:01:24.220Z,4.35
2022-10-30T05:04:25.975Z,4.60
2022-10-30T05:07:27.682Z,5.88
2022-10-30T05:10:29.302Z,4.35
2022-10-30T05:13:31.263Z,3.22
2022-10-30T05:16:32.937Z,4.53
2022-10-30T05:19:36.830Z,7.53
2022-10-30T05:22:40.814Z,3.65
2022-10-30T05:25:42.504Z,4.55
2022-10-30T05:28:47.465Z,3.10
2022-10-30T05:31:49.088Z,1.45
2022-10-30T05:34:50.679Z,3.78
2022-10-30T05:37:57.009Z,3.20
2022-10-30T05:40:58.691Z,4.03
2022-10-30T05:44:00.358Z,3.65
2022-10-30T05:47:02.291Z,3.13
2022-10-30T05:50:07.687Z,4.90
2022-10-30T05:53:10.923Z,3.63
2022-10-30T05:56:13.884Z,2.70
2022-10-30T05:59:15.537Z,1.85
2022-10-30T06:02:18.037Z,3.15
2022-10-30T06:05:19.728Z,5.25
2022-10-30T06:08:21.461Z,4.38
2022-10-30T06:11:27.186Z,5.07
2022-10-30T06:14:31.521Z,3.50
2022-10-30T06:17:33.164Z,6.50
2022-10-30T06:20:46.014Z,7.25
2022-10-30T06:24:06.399Z,7.20
2022-10-30T06:27:16.946Z,3.30
2022-10-30T06:30:19.709Z,23.30
2022-10-30T06:33:21.460Z,7.78
2022-10-30T06:36:25.915Z,4.88
2022-10-30T06:39:28.497Z,4.18
2022-10-30T06:42:53.869Z,4.00
2022-10-30T06:46:03.520Z,3.20
2022-10-30T06:49:06.514Z,5.00
2022-10-30T06:52:09.234Z,4.03
2022-10-30T06:55:11.429Z,4.35
2022-10-30T06:58:25.267Z,6.35
2022-10-30T07:01:30.764Z,4.07
2022-10-30T07:04:46.717Z,2.77
2022-10-30T07:07:48.310Z,4.05
2022-10-30T07:10:50.340Z,5.63
2022-10-30T07:13:59.977Z,4.90
2022-10-30T07:17:30.494Z,3.33
2022-10-30T07:20:37.590Z,3.05
2022-10-30T07:23:39.183Z,4.07
2022-10-30T07:27:12.900Z,2.33
2022-10-30T07:30:33.296Z,2.67
2022-10-30T07:33:53.981Z,3.22
2022-10-30T07:37:08.812Z,3.47
2022-10-30T07:40:18.846Z,3.45
2022-10-30T07:43:25.714Z,3.53
2022-10-30T07:46:36.293Z,3.22
2022-10-30T07:49:57.783Z,4.75
2022-10-30T07:52:59.684Z,4.13
2022-10-30T07:56:04.298Z,3.85
2022-10-30T07:59:29.373Z,7.28
2022-10-30T08:02:51.930Z,3.50
2022-10-30T08:06:02.870Z,5.35
2022-10-30T08:09:09.958Z,4.30
2022-10-30T08:12:11.569Z,3.90
2022-10-30T08:15:13.356Z,6.10
2022-10-30T08:18:15.275Z,3.65
2022-10-30T08:21:17.994Z,7.40
2022-10-30T08:24:30.400Z,9.45
2022-10-30T08:27:34.205Z,6.47
2022-10-30T08:30:36.142Z,4.85
2022-10-30T08:33:38.650Z,4.50
2022-10-30T08:37:00.826Z,4.95
2022-10-30T08:40:02.540Z,4.78
2022-10-30T08:43:15.346Z,5.05
2022-10-30T08:46:17.964Z,8.73
2022-10-30T08:49:19.708Z,5.70
2022-10-30T08:52:27.669Z,5.28
2022-10-30T08:55:31.903Z,4.50
2022-10-30T08:58:36.376Z,7.60
2022-10-30T09:01:38.644Z,7.32
2022-10-30T09:08:46.278Z,7.35
2022-10-30T09:12:05.293Z,4.75
2022-10-30T09:15:14.100Z,2.63
2022-10-30T09:18:26.688Z,4.20
2022-10-30T09:21:29.198Z,4.90
2022-10-30T09:24:30.878Z,5.35
2022-10-30T09:27:51.311Z,5.32
2022-10-30T09:30:56.519Z,3.95
2022-10-30T09:33:59.113Z,5.18
2022-10-30T09:37:15.876Z,3.50
2022-10-30T09:40:24.804Z,4.70
2022-10-30T09:43:46.843Z,9.32
2022-10-30T09:47:07.076Z,5.35
2022-10-30T09:50:18.982Z,5.38
2022-10-30T09:53:34.796Z,4.82
2022-10-30T09:56:42.472Z,7.00
2022-10-30T10:00:03.574Z,8.50
2022-10-30T10:03:38.590Z,6.63
2022-10-30T10:07:24.002Z,9.93
2022-10-30T10:10:48.134Z,7.10
2022-10-30T10:13:52.949Z,6.20
2022-10-30T10:16:55.936Z,6.60
2022-10-30T10:20:01.728Z,9.45
2022-10-30T10:23:18.961Z,8.52
2022-10-30T10:26:27.047Z,7.68
2022-10-30T10:29:50.298Z,6.07
2022-10-30T10:33:17.693Z,7.90
2022-10-30T10:36:25.270Z,7.32
2022-10-30T10:39:45.065Z,5.43
2022-10-30T10:42:46.748Z,8.45
2022-10-30T10:45:48.343Z,6.78
2022-10-30T10:49:08.792Z,6.55
2022-10-30T10:52:14.627Z,5.45
2022-10-30T10:55:18.698Z,5.47
2022-10-30T10:58:23.378Z,6.45
2022-10-30T11:01:41.143Z,4.80
2022-10-30T11:04:45.611Z,6.80
2022-10-30T11:07:48.479Z,3.45
2022-10-30T11:10:53.962Z,6.13
2022-10-30T11:13:55.837Z,7.53
2022-10-30T11:17:15.659Z,4.60
2022-10-30T11:20:28.366Z,4.70
2022-10-30T11:23:33.024Z,8.40
2022-10-30T11:26:34.804Z,5.70
2022-10-30T11:29:36.623Z,5.75
2022-10-30T11:32:38.297Z,7.30
2022-10-30T11:35:43.289Z,8.88
2022-10-30T11:38:45.341Z,7.38
2022-10-30T11:42:05.559Z,6.50
2022-10-30T11:45:13.403Z,5.97
2022-10-30T11:48:23.235Z,8.40
2022-10-30T11:51:36.359Z,8.80
2022-10-30T11:54:39.718Z,8.70
2022-10-30T11:57:51.288Z,9.27
2022-10-30T12:01:19.743Z,6.40
2022-10-30T12:04:23.430Z,9.02
2022-10-30T12:07:32.314Z,9.98
2022-10-30T12:10:54.115Z,8.50
2022-10-30T12:13:55.872Z,10.55
2022-10-30T12:16:57.714Z,7.85
2022-10-30T12:19:59.425Z,8.00
2022-10-30T12:23:09.979Z,7.55
2022-10-30T12:26:12.548Z,5.95
2022-10-30T12:29:15.955Z,7.13
2022-10-30T12:32:19.312Z,7.53
2022-10-30T12:35:25.100Z,6.45
2022-10-30T12:38:32.884Z,7.03
2022-10-30T12:41:43.394Z,9.98
2022-10-30T12:44:48.417Z,6.57
2022-10-30T12:48:16.845Z,6.80
2022-10-30T12:51:32.378Z,10.07
2022-10-30T12:54:37.123Z,10.02
2022-10-30T12:57:44.418Z,10.30
2022-10-30T13:00:57.013Z,8.00
2022-10-30T13:04:10.028Z,11.70
2022-10-30T13:07:33.996Z,10.13
2022-10-30T13:10:56.527Z,8.07
2022-10-30T13:13:59.464Z,7.22
2022-10-30T13:17:01.094Z,8.95
2022-10-30T13:20:05.712Z,11.90
2022-10-30T13:23:11.193Z,7.43
2022-10-30T13:26:22.184Z,9.10
2022-10-30T13:29:45.654Z,7.25
2022-10-30T13:32:56.874Z,8.10
2022-10-30T13:36:21.286Z,12.18
2022-10-30T13:39:25.668Z,10.10
2022-10-30T13:42:46.535Z,11.77
2022-10-30T13:45:54.118Z,9.90
2022-10-30T13:48:58.921Z,9.85
2022-10-30T13:52:12.384Z,8.95
2022-10-30T13:55:23.077Z,8.60
2022-10-30T13:58:29.112Z,11.35
2022-10-30T14:01:37.804Z,11.85
2022-10-30T14:04:52.593Z,13.32
2022-10-30T14:08:07.633Z,8.13
2022-10-30T14:11:13.287Z,12.55
2022-10-30T14:14:28.321Z,12.90
2022-10-30T14:17:29.945Z,13.25
2022-10-30T14:20:31.579Z,12.55
2022-10-30T14:23:36.558Z,10.57
2022-10-30T14:26:49.971Z,11.80
2022-10-30T14:29:54.431Z,9.63
2022-10-30T14:32:56.351Z,12.50
2022-10-30T14:36:13.601Z,12.27
2022-10-30T14:39:15.214Z,11.15
2022-10-30T14:42:29.105Z,10.68
2022-10-30T14:45:36.645Z,10.43
2022-10-30T14:48:47.122Z,12.00
2022-10-30T14:51:55.768Z,9.60
2022-10-30T14:55:03.853Z,9.07
2022-10-30T14:58:05.399Z,9.95
2022-10-30T15:01:09.809Z,9.60
2022-10-30T15:04:28.737Z,10.82
2022-10-30T15:07:48.881Z,11.82
2022-10-30T15:10:59.547Z,12.48
2022-10-30T15:14:03.172Z,15.95
2022-10-30T15:17:04.911Z,12.45
2022-10-30T15:20:08.488Z,11.35
2022-10-30T15:23:19.346Z,34.25
2022-10-30T15:26:23.241Z,15.75
2022-10-30T15:29:28.943Z,9.32
2022-10-30T15:32:30.553Z,11.35
2022-10-30T15:35:32.143Z,10.15
2022-10-30T15:38:33.850Z,12.38
2022-10-30T15:41:40.128Z,15.05
2022-10-30T15:48:06.072Z,13.67
2022-10-30T15:51:16.220Z,11.30
2022-10-30T15:54:23.873Z,13.40
2022-10-30T15:57:56.849Z,11.45
2022-10-30T16:00:57.009Z,14.95
2022-10-30T16:03:58.684Z,12.10
2022-10-30T16:07:01.655Z,13.73
2022-10-30T16:10:04.856Z,13.65
2022-10-30T16:13:06.437Z,12.63
2022-10-30T16:16:28.393Z,11.45
2022-10-30T16:19:38.069Z,11.18
2022-10-30T16:22:40.209Z,11.70
2022-10-30T16:25:46.745Z,9.45
2022-10-30T16:28:48.994Z,14.52
2022-10-30T16:31:51.244Z,12.45
2022-10-30T16:35:00.195Z,10.85
2022-10-30T16:38:03.601Z,15.82
2022-10-30T16:41:06.096Z,10.88
2022-10-30T16:44:13.880Z,12.70
2022-10-30T16:47:18.459Z,12.23
2022-10-30T16:50:20.388Z,11.50
2022-10-30T16:53:23.162Z,12.70
2022-10-30T16:56:29.818Z,12.02
2022-10-30T16:59:33.229Z,10.23
2022-10-30T17:02:36.911Z,18.88
2022-10-30T17:05:40.188Z,11.98
2022-10-30T17:08:43.156Z,12.57
2022-10-30T17:11:46.203Z,12.13
2022-10-30T17:14:47.954Z,9.45
2022-10-30T17:18:09.247Z,13.10
2022-10-30T17:21:12.089Z,12.18
2022-10-30T17:24:32.654Z,9.75
2022-10-30T17:27:46.587Z,13.30
2022-10-30T17:30:48.545Z,12.80
2022-10-30T17:34:13.172Z,15.20
2022-10-30T17:37:14.739Z,13.40
2022-10-30T17:40:19.496Z,12.25
2022-10-30T17:43:22.355Z,10.00
2022-10-30T17:46:24.248Z,8.93
2022-10-30T17:49:30.296Z,12.88
2022-10-30T17:52:32.415Z,10.95
2022-10-30T17:55:34.844Z,9.48
2022-10-30T17:58:36.455Z,8.88
2022-10-30T18:01:38.095Z,10.75
2022-10-30T18:04:42.256Z,13.25
2022-10-30T18:07:45.740Z,11.93
2022-10-30T18:10:47.418Z,10.23
2022-10-30T18:13:49.821Z,12.43
2022-10-30T18:16:54.614Z,11.50
2022-10-30T18:19:57.158Z,12.32
2022-10-30T18:22:59.392Z,10.48
2022-10-30T18:26:01.288Z,10.52
2022-10-30T18:29:02.871Z,11.13
2022-10-30T18:32:09.457Z,9.18
2022-10-30T18:35:30.514Z,9.13
2022-10-30T18:38:32.167Z,10.55
2022-10-30T18:41:35.582Z,9.82
2022-10-30T18:44:37.342Z,10.07
2022-10-30T18:47:39.148Z,10.43
2022-10-30T18:50:40.913Z,11.05
2022-10-30T18:53:42.566Z,11.13
2022-10-30T18:56:44.316Z,9.10
2022-10-30T18:59:45.997Z,8.43
2022-10-30T19:02:51.168Z,8.38
2022-10-30T19:05:52.992Z,9.07
2022-10-30T19:08:54.682Z,10.02
2022-10-30T19:11:56.264Z,10.30
2022-10-30T19:14:58.318Z,10.68
2022-10-30T19:18:01.297Z,8.63
2022-10-30T19:21:05.724Z,11.07
2022-10-30T19:24:12.262Z,11.90
2022-10-30T19:27:13.924Z,9.00
2022-10-30T19:30:16.097Z,6.82
2022-10-30T19:33:18.083Z,10.00
2022-10-30T19:36:30.886Z,11.02
2022-10-30T19:39:33.414Z,10.25
2022-10-30T19:42:35.061Z,7.15
2022-10-30T19:45:36.714Z,10.13
2022-10-30T19:48:56.677Z,12.77
2022-10-30T19:51:59.154Z,8.73
2022-10-30T19:55:00.723Z,11.50
2022-10-30T19:58:03.186Z,9.80
2022-10-30T20:01:04.987Z,8.68
2022-10-30T20:04:06.811Z,6.97
2022-10-30T20:07:08.762Z,8.13
2022-10-30T20:10:20.217Z,7.45
2022-10-30T20:13:25.292Z,7.78
2022-10-30T20:16:27.035Z,7.53
2022-10-30T20:19:29.898Z,7.47
2022-10-30T20:22:31.476Z,7.53
2022-10-30T20:25:33.078Z,5.78
2022-10-30T20:28:39.093Z,8.40
2022-10-30T20:31:40.638Z,7.10
2022-10-30T20:34:42.207Z,9.35
2022-10-30T20:37:44.854Z,7.20
2022-10-30T20:40:47.167Z,8.65
2022-10-30T20:43:50.291Z,7.30
2022-10-30T20:46:51.978Z,7.20
2022-10-30T20:49:53.649Z,6.10
2022-10-30T20:52:56.373Z,6.70
2022-10-30T20:55:58.079Z,7.80
2022-10-30T20:58:59.657Z,7.57
2022-10-30T21:02:01.350Z,6.38
2022-10-30T21:05:12.099Z,6.40
2022-10-30T21:08:25.380Z,8.13
2022-10-30T21:11:26.992Z,7.85
2022-10-30T21:14:28.554Z,7.25
2022-10-30T21:17:30.214Z,9.77
2022-10-30T21:20:31.782Z,9.40
2022-10-30T21:23:33.414Z,8.07
2022-10-30T21:26:36.577Z,6.72
2022-10-30T21:29:38.255Z,7.38
2022-10-30T21:32:40.201Z,9.23
2022-10-30T21:35:41.784Z,9.82
2022-10-30T21:38:44.434Z,7.13
2022-10-30T21:41:46.013Z,7.57
2022-10-30T21:44:47.653Z,6.90
2022-10-30T21:47:51.591Z,6.10
2022-10-30T21:50:53.167Z,6.47
2022-10-30T21:53:54.921Z,7.13
2022-10-30T21:56:56.605Z,8.63
2022-10-30T22:00:01.522Z,7.35
2022-10-30T22:03:10.378Z,6.50
2022-10-30T22:06:13.359Z,8.45
2022-10-30T22:09:16.127Z,6.60
2022-10-30T22:12:17.924Z,7.70
2022-10-30T22:15:19.546Z,6.88
2022-10-30T22:18:21.885Z,7.40
2022-10-30T22:21:23.813Z,5.63
2022-10-30T22:24:25.352Z,7.25
2022-10-30T22:27:26.991Z,6.18
2022-10-30T22:30:28.536Z,6.28
2022-10-30T22:33:31.079Z,6.88
2022-10-30T22:36:33.348Z,6.57
2022-10-30T22:39:35.030Z,7.35
2022-10-30T22:42:36.607Z,6.57
2022-10-30T22:45:38.232Z,5.65
2022-10-30T22:48:39.910Z,5.53
2022-10-30T22:51:41.610Z,7.00
2022-10-30T22:54:43.200Z,11.15
2022-10-30T22:57:44.909Z,7.40
2022-10-30T23:00:46.443Z,7.93
2022-10-30T23:03:50.899Z,9.93
2022-10-30T23:06:52.493Z,4.65
2022-10-30T23:09:54.078Z,6.68
2022-10-30T23:12:58.603Z,4.85
2022-10-30T23:16:01.735Z,7.43
2022-10-30T23:19:03.581Z,5.65
2022-10-30T23:22:05.192Z,6.32
2022-10-30T23:25:06.978Z,6.85
2022-10-30T23:28:09.709Z,6.75
2022-10-30T23:31:17.496Z,10.27
2022-10-30T23:34:19.163Z,5.10
2022-10-30T23:37:20.804Z,5.72
2022-10-30T23:40:22.433Z,6.15
2022-10-30T23:43:24.122Z,8.07
2022-10-30T23:46:26.596Z,6.93
2022-10-30T23:49:33.169Z,7.07
2022-10-30T23:52:35.928Z,5.97
2022-10-30T23:55:37.564Z,5.95
2022-10-30T23:58:42.305Z,6.47
